createdAt,value
2019-02-14T00:00:43.482Z,85.50
2019-02-14T00:03:16.988Z,85.50
2019-02-14T00:05:55.761Z,85.60
2019-02-14T00:08:27.829Z,85.60
2019-02-14T00:11:06.436Z,85.80
2019-02-14T00:13:38.397Z,85.80
2019-02-14T00:16:09.854Z,85.90
2019-02-14T00:18:41.626Z,85.90
2019-02-14T00:21:12.987Z,85.90
2019-02-14T00:26:56.076Z,85.80
2019-02-14T00:29:39.037Z,85.70
2019-02-14T00:32:19.301Z,88.50
2019-02-14T00:34:58.239Z,85.80
2019-02-14T00:37:30.917Z,85.70
2019-02-14T00:40:08.130Z,88.60
2019-02-14T00:42:40.939Z,85.80
2019-02-14T00:45:17.436Z,86.00
2019-02-14T00:47:48.790Z,87.70
2019-02-14T00:50:20.331Z,86.10
2019-02-14T00:52:52.126Z,88.10
2019-02-14T00:55:38.404Z,88.00
2019-02-14T00:58:09.984Z,89.60
2019-02-14T01:01:01.789Z,86.40
2019-02-14T01:03:40.093Z,89.40
2019-02-14T01:06:20.658Z,90.50
2019-02-14T01:09:09.615Z,88.90
2019-02-14T01:12:10.317Z,90.60
2019-02-14T01:15:10.258Z,89.70
2019-02-14T01:20:35.155Z,91.00
2019-02-14T01:23:12.536Z,90.00
2019-02-14T01:29:08.842Z,90.90
2019-02-14T01:31:40.586Z,91.70
2019-02-14T01:37:44.428Z,87.50
2019-02-14T01:40:09.286Z,86.60
2019-02-14T01:43:02.562Z,86.80
2019-02-14T01:45:53.257Z,86.80
2019-02-14T01:48:30.406Z,86.80
2019-02-14T01:51:12.429Z,86.80
2019-02-14T01:53:51.793Z,86.90
2019-02-14T01:56:32.193Z,86.90
2019-02-14T01:59:07.166Z,87.00
2019-02-14T02:01:48.639Z,87.10
2019-02-14T02:04:25.838Z,87.10
2019-02-14T02:07:11.482Z,87.10
2019-02-14T02:09:43.175Z,87.10
2019-02-14T02:15:14.804Z,90.00
2019-02-14T02:17:46.314Z,90.70
2019-02-14T02:20:17.852Z,88.70
2019-02-14T02:25:20.362Z,89.10
2019-02-14T02:27:52.770Z,89.20
2019-02-14T02:30:28.841Z,89.70
2019-02-14T02:33:13.351Z,89.40
2019-02-14T02:35:44.759Z,90.40
2019-02-14T02:38:18.584Z,87.50
2019-02-14T02:40:50.211Z,90.40
2019-02-14T02:43:31.111Z,88.30
2019-02-14T02:46:16.330Z,88.50
2019-02-14T02:48:55.741Z,90.60
2019-02-14T02:54:20.096Z,87.90
2019-02-14T02:57:00.764Z,90.60
2019-02-14T02:59:32.306Z,89.30
2019-02-14T03:02:06.982Z,89.30
2019-02-14T03:04:38.257Z,89.40
2019-02-14T04:06:17.417Z,90.70
2019-02-14T04:08:52.018Z,90.40
2019-02-14T04:11:39.789Z,89.80
2019-02-14T04:14:16.785Z,90.70
2019-02-14T04:16:49.733Z,90.60
2019-02-14T04:19:20.994Z,90.70
2019-02-14T04:21:52.531Z,90.00
2019-02-14T04:24:23.962Z,90.00
2019-02-14T04:26:55.445Z,91.30
2019-02-14T04:29:27.034Z,90.00
2019-02-14T04:32:00.890Z,91.00
2019-02-14T04:34:33.765Z,91.60
2019-02-14T04:37:05.949Z,90.00
2019-02-14T04:39:41.906Z,90.00
2019-02-14T04:42:15.056Z,92.00
2019-02-14T04:45:01.440Z,91.20
2019-02-14T04:47:23.259Z,90.10
2019-02-14T04:50:05.362Z,92.10
2019-02-14T04:52:37.540Z,91.40
2019-02-14T04:55:09.354Z,89.90
2019-02-14T04:58:05.610Z,89.90
2019-02-14T05:00:49.524Z,91.90
2019-02-14T05:03:21.842Z,91.40
2019-02-14T05:05:53.219Z,91.40
2019-02-14T05:08:24.856Z,90.00
2019-02-14T05:10:56.142Z,91.90
2019-02-14T05:13:27.853Z,90.10
2019-02-14T05:15:59.336Z,90.10
2019-02-14T05:18:33.751Z,90.10
2019-02-14T05:21:05.121Z,91.10
2019-02-14T05:23:39.351Z,90.10
2019-02-14T05:26:12.157Z,90.20
2019-02-14T05:28:45.062Z,90.20
2019-02-14T05:31:16.547Z,90.20
2019-02-14T05:33:48.089Z,90.20
2019-02-14T05:36:19.676Z,92.10
2019-02-14T05:38:52.848Z,91.90
2019-02-14T05:41:24.542Z,91.20
2019-02-14T05:43:56.181Z,90.20
2019-02-14T05:46:28.699Z,92.60
2019-02-14T05:49:00.010Z,90.20
2019-02-14T05:51:31.697Z,90.30
2019-02-14T05:54:04.885Z,90.20
2019-02-14T05:56:36.288Z,90.30
2019-02-14T05:59:07.966Z,91.60
2019-02-14T06:01:39.553Z,92.10
2019-02-14T06:04:10.935Z,90.20
2019-02-14T06:06:42.346Z,91.70
2019-02-14T06:09:14.194Z,91.30
2019-02-14T06:11:45.861Z,90.20
2019-02-14T06:14:17.578Z,90.20
2019-02-14T06:16:48.950Z,90.20
2019-02-14T06:19:20.329Z,90.20
2019-02-14T06:21:53.409Z,90.10
2019-02-14T06:24:24.666Z,90.10
2019-02-14T06:26:56.133Z,90.10
2019-02-14T06:29:34.828Z,90.10
2019-02-14T06:32:06.362Z,90.20
2019-02-14T06:34:38.835Z,90.20
2019-02-14T06:37:13.409Z,90.20
2019-02-14T06:39:44.785Z,90.30
2019-02-14T06:42:17.052Z,91.90
2019-02-14T06:44:49.165Z,91.70
2019-02-14T06:47:20.641Z,91.90
2019-02-14T06:49:52.656Z,90.30
2019-02-14T06:52:23.957Z,91.00
2019-02-14T06:54:55.838Z,90.20
2019-02-14T06:57:27.869Z,92.10
2019-02-14T06:59:59.161Z,91.70
2019-02-14T07:02:39.001Z,90.30
2019-02-14T07:05:11.049Z,90.70
2019-02-14T07:07:42.824Z,91.70
2019-02-14T07:10:15.104Z,90.40
2019-02-14T07:12:47.919Z,90.40
2019-02-14T07:15:19.421Z,90.40
2019-02-14T07:17:52.306Z,90.50
2019-02-14T07:20:24.633Z,92.00
2019-02-14T07:22:56.729Z,91.80
2019-02-14T07:25:28.294Z,91.50
2019-02-14T07:27:59.525Z,91.30
2019-02-14T07:30:31.128Z,91.60
2019-02-14T07:33:03.741Z,90.60
2019-02-14T07:35:36.578Z,90.60
2019-02-14T07:38:08.118Z,90.60
2019-02-14T07:40:39.823Z,90.60
2019-02-14T07:43:11.798Z,90.60
2019-02-14T07:45:43.606Z,90.50
2019-02-14T07:48:14.888Z,90.50
2019-02-14T07:50:46.374Z,90.60
2019-02-14T07:53:18.149Z,90.50
2019-02-14T07:55:50.423Z,90.40
2019-02-14T07:58:23.258Z,90.40
2019-02-14T08:00:55.609Z,90.50
2019-02-14T08:03:27.990Z,90.50
2019-02-14T08:06:00.319Z,90.50
2019-02-14T08:08:32.330Z,90.50
2019-02-14T08:11:05.430Z,90.40
2019-02-14T08:13:36.815Z,92.30
2019-02-14T08:16:08.485Z,90.30
2019-02-14T08:18:40.147Z,90.20
2019-02-14T08:21:11.650Z,90.20
2019-02-14T08:23:45.593Z,90.10
2019-02-14T08:26:16.910Z,90.00
2019-02-14T08:28:48.690Z,90.00
2019-02-14T08:31:21.025Z,89.90
2019-02-14T08:33:52.413Z,89.50
2019-02-14T08:36:25.066Z,89.40
2019-02-14T08:38:57.022Z,89.20
2019-02-14T08:41:28.419Z,89.20
2019-02-14T08:43:59.971Z,89.00
2019-02-14T08:46:33.085Z,88.80
2019-02-14T08:49:04.798Z,88.70
2019-02-14T08:51:37.630Z,88.70
2019-02-14T08:54:09.524Z,88.40
2019-02-14T08:56:41.809Z,88.20
2019-02-14T08:59:14.325Z,88.10
2019-02-14T09:01:45.817Z,88.00
2019-02-14T09:04:17.262Z,87.90
2019-02-14T09:06:48.818Z,87.80
2019-02-14T09:09:20.211Z,87.70
2019-02-14T09:11:51.882Z,87.70
2019-02-14T09:14:23.202Z,87.70
2019-02-14T09:16:54.615Z,87.60
2019-02-14T09:19:26.084Z,87.50
2019-02-14T09:21:59.696Z,90.30
2019-02-14T09:24:30.974Z,87.30
2019-02-14T09:27:02.476Z,87.30
2019-02-14T09:29:34.106Z,87.10
2019-02-14T09:32:05.910Z,88.00
2019-02-14T09:34:37.346Z,90.00
2019-02-14T09:37:08.794Z,89.30
2019-02-14T09:39:41.812Z,87.70
2019-02-14T09:42:14.046Z,88.00
2019-02-14T09:44:45.483Z,89.10
2019-02-14T09:50:20.721Z,86.50
2019-02-14T09:52:53.539Z,86.40
2019-02-14T09:55:24.863Z,88.20
2019-02-14T09:57:56.369Z,86.00
2019-02-14T10:00:27.703Z,85.70
2019-02-14T10:02:59.892Z,85.40
2019-02-14T10:05:31.550Z,85.10
2019-02-14T10:08:12.212Z,84.80
2019-02-14T10:10:36.664Z,84.50
2019-02-14T10:13:09.219Z,84.40
2019-02-14T10:15:41.128Z,84.10
2019-02-14T10:18:14.164Z,84.00
2019-02-14T10:20:46.010Z,84.00
2019-02-14T10:23:20.599Z,83.80
2019-02-14T10:25:52.704Z,83.60
2019-02-14T10:28:24.277Z,83.60
2019-02-14T10:30:56.474Z,83.50
2019-02-14T10:33:27.817Z,83.40
2019-02-14T10:35:59.161Z,83.40
2019-02-14T10:38:31.917Z,83.50
2019-02-14T10:41:03.599Z,86.20
2019-02-14T10:43:34.954Z,83.30
2019-02-14T10:46:07.072Z,83.10
2019-02-14T10:48:43.231Z,82.80
2019-02-14T10:51:14.555Z,82.50
2019-02-14T10:53:45.914Z,82.20
2019-02-14T10:56:17.490Z,81.90
2019-02-14T10:58:48.804Z,81.60
2019-02-14T11:01:20.737Z,81.20
2019-02-14T11:03:53.587Z,81.00
2019-02-14T11:06:24.858Z,80.80
2019-02-14T11:08:56.317Z,80.60
2019-02-14T11:11:29.223Z,80.50
2019-02-14T11:14:03.065Z,80.40
2019-02-14T11:16:34.831Z,80.40
2019-02-14T11:19:06.185Z,80.40
2019-02-14T11:21:38.237Z,80.40
2019-02-14T11:24:09.942Z,80.30
2019-02-14T11:26:41.650Z,80.40
2019-02-14T11:29:14.566Z,80.40
2019-02-14T11:31:46.527Z,79.40
2019-02-14T11:34:17.722Z,79.40
2019-02-14T11:36:49.026Z,80.40
2019-02-14T11:39:20.902Z,80.40
2019-02-14T11:41:52.397Z,80.40
2019-02-14T11:44:23.730Z,84.80
2019-02-14T11:46:58.583Z,84.60
2019-02-14T11:49:31.484Z,83.80
2019-02-14T11:52:02.793Z,80.50
2019-02-14T11:54:34.073Z,80.40
2019-02-14T11:57:05.559Z,80.60
2019-02-14T11:59:37.126Z,80.80
2019-02-14T12:02:08.439Z,80.90
2019-02-14T12:04:40.109Z,80.90
2019-02-14T12:07:11.930Z,80.70
2019-02-14T12:09:44.628Z,80.50
2019-02-14T12:12:16.054Z,80.30
2019-02-14T12:14:47.677Z,80.20
2019-02-14T12:17:19.045Z,79.90
2019-02-14T12:19:50.920Z,79.70
2019-02-14T12:22:22.458Z,78.50
2019-02-14T12:24:53.738Z,78.30
2019-02-14T12:27:25.017Z,78.00
2019-02-14T12:29:56.394Z,77.90
2019-02-14T12:32:27.801Z,77.80
2019-02-14T12:34:59.100Z,78.50
2019-02-14T12:37:30.989Z,78.70
2019-02-14T12:40:02.485Z,78.70
2019-02-14T12:42:35.128Z,78.70
2019-02-14T12:45:07.552Z,78.70
2019-02-14T12:47:39.037Z,78.80
2019-02-14T12:50:10.807Z,79.00
2019-02-14T12:52:44.014Z,79.00
2019-02-14T12:55:15.458Z,79.00
2019-02-14T12:57:47.773Z,79.00
2019-02-14T13:00:20.166Z,78.90
2019-02-14T13:02:52.541Z,78.70
2019-02-14T13:05:23.811Z,78.60
2019-02-14T13:07:55.336Z,78.60
2019-02-14T13:10:26.714Z,78.60
2019-02-14T13:12:58.089Z,78.60
2019-02-14T13:15:30.166Z,78.60
2019-02-14T13:18:01.789Z,78.60
2019-02-14T13:20:33.098Z,78.70
2019-02-14T13:23:04.565Z,78.70
2019-02-14T13:25:36.079Z,78.90
2019-02-14T13:28:07.563Z,78.90
2019-02-14T13:30:39.048Z,78.90
2019-02-14T13:33:10.730Z,79.00
2019-02-14T13:35:43.895Z,79.00
2019-02-14T13:38:15.389Z,79.20
2019-02-14T13:40:46.999Z,79.30
2019-02-14T13:43:20.267Z,79.40
2019-02-14T13:45:51.723Z,79.40
2019-02-14T13:48:23.620Z,79.60
2019-02-14T13:50:57.439Z,79.70
2019-02-14T13:53:28.801Z,79.80
2019-02-14T13:56:01.362Z,79.90
2019-02-14T13:58:34.401Z,80.00
2019-02-14T14:01:05.892Z,80.10
2019-02-14T14:03:39.364Z,80.10
2019-02-14T14:06:10.814Z,80.20
2019-02-14T14:08:42.813Z,80.40
2019-02-14T14:11:14.380Z,80.40
2019-02-14T14:13:45.844Z,80.70
2019-02-14T14:16:17.503Z,80.70
2019-02-14T14:18:48.928Z,80.60
2019-02-14T14:21:20.280Z,80.60
2019-02-14T14:23:51.685Z,80.70
2019-02-14T14:26:23.162Z,80.60
2019-02-14T14:28:54.643Z,80.60
2019-02-14T14:31:26.111Z,80.60
2019-02-14T14:33:57.790Z,80.70
2019-02-14T14:36:29.062Z,80.70
2019-02-14T14:39:01.875Z,80.60
2019-02-14T14:41:35.697Z,80.70
2019-02-14T14:44:28.924Z,81.20
2019-02-14T14:47:06.637Z,81.80
2019-02-14T14:49:38.273Z,82.30
2019-02-14T14:52:09.645Z,81.20
2019-02-14T14:54:41.168Z,81.00
2019-02-14T14:57:12.846Z,80.60
2019-02-14T14:59:46.557Z,79.90
2019-02-14T15:02:20.503Z,80.00
2019-02-14T15:04:52.139Z,78.80
2019-02-14T15:07:25.104Z,78.40
2019-02-14T15:09:57.819Z,78.00
2019-02-14T18:07:25.821Z,74.10
2019-02-14T18:09:57.313Z,74.80
2019-02-14T18:19:23.714Z,75.10
2019-02-14T18:27:57.313Z,75.00
2019-02-14T20:58:04.816Z,80.10
2019-02-14T22:18:39.276Z,80.50
2019-02-14T23:42:03.763Z,81.80
2019-02-14T23:44:55.066Z,82.00
2019-02-14T23:47:27.499Z,82.10
2019-02-14T23:50:04.513Z,82.10
2019-02-14T23:52:40.038Z,82.10
2019-02-14T23:55:26.835Z,82.10
2019-02-14T23:57:58.124Z,82.30
